createdAt,value
2022-10-28T00:01:21.868Z,100650.34
2022-10-28T00:03:51.869Z,100697.09
2022-10-28T00:06:24.128Z,100685.72
2022-10-28T00:08:51.391Z,100685.03
2022-10-28T00:11:24.660Z,100675.47
2022-10-28T00:13:56.985Z,100699.16
2022-10-28T00:16:29.646Z,100675.41
2022-10-28T00:18:59.427Z,100690.34
2022-10-28T00:21:29.721Z,100576.34
2022-10-28T00:23:57.413Z,100687.53
2022-10-28T00:26:26.851Z,100586.25
2022-10-28T00:28:57.968Z,100694.69
2022-10-28T00:31:26.900Z,100688.44
2022-10-28T00:33:54.660Z,100689.31
2022-10-28T00:36:25.471Z,100694.00
2022-10-28T00:38:55.414Z,100697.56
2022-10-28T00:41:29.015Z,100578.63
2022-10-28T00:44:34.439Z,100692.69
2022-10-28T00:47:01.603Z,100659.06
2022-10-28T00:49:32.574Z,100648.53
2022-10-28T00:52:08.723Z,100658.38
2022-10-28T00:54:38.099Z,100672.47
2022-10-28T00:57:10.614Z,100656.66
2022-10-28T00:59:41.804Z,100690.16
2022-10-28T01:02:09.073Z,100648.81
2022-10-28T01:04:36.282Z,100667.47
2022-10-28T01:07:03.535Z,100695.66
2022-10-28T01:09:32.409Z,100685.22
2022-10-28T01:12:35.565Z,100691.31
2022-10-28T01:15:25.657Z,100592.19
2022-10-28T01:18:12.744Z,100694.78
2022-10-28T01:20:41.723Z,100686.91
2022-10-28T01:23:31.744Z,100693.28
2022-10-28T01:26:07.615Z,100609.09
2022-10-28T01:28:46.539Z,100671.75
2022-10-28T01:31:38.249Z,100692.81
2022-10-28T01:34:28.752Z,100692.84
2022-10-28T01:37:17.373Z,100696.59
2022-10-28T01:40:02.931Z,100694.50
2022-10-28T01:43:16.633Z,100683.69
2022-10-28T01:45:59.441Z,100693.91
2022-10-28T01:48:47.735Z,100684.53
2022-10-28T01:51:26.891Z,100644.94
2022-10-28T01:53:57.198Z,100643.16
2022-10-28T01:56:39.248Z,100683.91
2022-10-28T01:59:11.669Z,100686.28
2022-10-28T02:01:38.834Z,100586.63
2022-10-28T02:04:06.133Z,100554.16
2022-10-28T02:06:34.949Z,100678.75
2022-10-28T02:09:24.692Z,100673.00
2022-10-28T02:12:17.313Z,100649.72
2022-10-28T02:15:21.718Z,100677.28
2022-10-28T02:18:00.642Z,100678.97
2022-10-28T02:20:33.895Z,100685.06
2022-10-28T02:23:25.498Z,100681.81
2022-10-28T02:25:59.361Z,100681.47
2022-10-28T02:28:53.556Z,100678.97
2022-10-28T02:31:37.848Z,100599.53
2022-10-28T02:34:09.651Z,100685.13
2022-10-28T02:36:41.862Z,100660.91
2022-10-28T02:39:08.950Z,100678.50
2022-10-28T02:41:51.099Z,100665.81
2022-10-28T02:44:23.915Z,100651.47
2022-10-28T02:46:52.713Z,100600.09
2022-10-28T02:49:20.155Z,100646.53
2022-10-28T02:51:53.927Z,100307.78
2022-10-28T02:54:34.735Z,100640.34
2022-10-28T02:57:08.305Z,100654.16
2022-10-28T02:59:35.350Z,100640.59
2022-10-28T03:02:02.464Z,100601.72
2022-10-28T03:04:29.675Z,100675.56
2022-10-28T03:06:56.773Z,100677.47
2022-10-28T03:09:23.866Z,100686.56
2022-10-28T03:11:50.964Z,100664.38
2022-10-28T03:14:17.996Z,100690.13
2022-10-28T03:16:45.055Z,100689.34
2022-10-28T03:19:12.165Z,100657.78
2022-10-28T03:21:39.190Z,100666.06
2022-10-28T03:24:06.560Z,100684.47
2022-10-28T03:26:33.625Z,100643.56
2022-10-28T03:29:00.736Z,100672.84
2022-10-28T03:31:27.770Z,100658.94
2022-10-28T03:33:54.920Z,100685.06
2022-10-28T03:36:21.948Z,100647.19
2022-10-28T03:38:49.006Z,100670.47
2022-10-28T03:41:16.179Z,100673.06
2022-10-28T03:43:43.464Z,100663.56
2022-10-28T03:46:10.473Z,100635.94
2022-10-28T03:48:37.498Z,100653.28
2022-10-28T03:51:04.689Z,100655.88
2022-10-28T03:53:31.763Z,100666.47
2022-10-28T03:56:02.702Z,100626.53
2022-10-28T03:58:29.868Z,100653.44
2022-10-28T04:00:57.265Z,100663.59
2022-10-28T04:03:25.672Z,100656.94
2022-10-28T04:05:53.083Z,100618.19
2022-10-28T04:08:21.242Z,100478.63
2022-10-28T04:10:48.638Z,100637.28
2022-10-28T04:13:16.680Z,100542.34
2022-10-28T04:15:44.224Z,100592.72
2022-10-28T04:18:11.499Z,100646.78
2022-10-28T04:20:38.577Z,100546.44
2022-10-28T04:23:05.746Z,100636.59
2022-10-28T04:25:33.211Z,100563.03
2022-10-28T04:28:02.565Z,100650.09
2022-10-28T04:30:29.612Z,100618.53
2022-10-28T04:32:56.612Z,100618.69
2022-10-28T04:35:24.060Z,100651.41
2022-10-28T04:37:51.161Z,100640.22
2022-10-28T04:40:18.557Z,100625.34
2022-10-28T04:42:45.683Z,100604.28
2022-10-28T04:45:12.733Z,100648.28
2022-10-28T04:47:39.817Z,100642.09
2022-10-28T04:50:07.205Z,100618.00
2022-10-28T04:52:34.361Z,100578.34
2022-10-28T04:55:01.492Z,100547.31
2022-10-28T04:57:30.563Z,100643.69
2022-10-28T04:59:57.507Z,100565.16
2022-10-28T05:02:24.754Z,100634.69
2022-10-28T05:04:52.144Z,100558.00
2022-10-28T05:07:21.302Z,100656.03
2022-10-28T05:09:50.582Z,100632.44
2022-10-28T05:12:17.685Z,100646.75
2022-10-28T05:14:44.860Z,100649.50
2022-10-28T05:17:12.178Z,100657.25
2022-10-28T05:19:39.180Z,100636.94
2022-10-28T05:22:06.218Z,100636.38
2022-10-28T05:24:33.152Z,100536.56
2022-10-28T05:27:01.042Z,100646.84
2022-10-28T05:29:33.018Z,100637.16
2022-10-28T05:32:01.066Z,100624.91
2022-10-28T05:34:28.155Z,100617.31
2022-10-28T05:36:55.173Z,100647.09
2022-10-28T05:39:22.309Z,100652.66
2022-10-28T05:41:49.364Z,100653.41
2022-10-28T05:44:16.280Z,100661.47
2022-10-28T05:46:43.477Z,100645.75
2022-10-28T05:49:10.810Z,100630.88
2022-10-28T05:51:37.918Z,100569.69
2022-10-28T05:54:05.072Z,100646.47
2022-10-28T05:56:32.004Z,100674.38
2022-10-28T05:58:58.939Z,100663.00
2022-10-28T06:01:25.908Z,100580.88
2022-10-28T06:03:52.982Z,100653.41
2022-10-28T06:06:20.070Z,100637.84
2022-10-28T06:08:46.958Z,100618.69
2022-10-28T06:11:12.776Z,100636.16
2022-10-28T06:13:39.689Z,100631.00
2022-10-28T06:16:07.447Z,100438.75
2022-10-28T06:18:34.625Z,100471.53
2022-10-28T06:21:01.879Z,100649.28
2022-10-28T06:23:29.035Z,100571.16
2022-10-28T06:26:00.918Z,100625.41
2022-10-28T06:28:28.346Z,100627.25
2022-10-28T06:31:03.134Z,100513.34
2022-10-28T06:33:31.724Z,100544.72
2022-10-28T06:35:59.818Z,100662.63
2022-10-28T06:38:27.774Z,100667.94
2022-10-28T06:40:58.354Z,100462.03
2022-10-28T06:43:25.478Z,100599.03
2022-10-28T06:45:55.706Z,100590.66
2022-10-28T06:48:24.545Z,100552.75
2022-10-28T06:50:51.656Z,100588.41
2022-10-28T06:53:18.674Z,100599.28
2022-10-28T06:55:53.058Z,100587.13
2022-10-28T06:58:20.420Z,100628.50
2022-10-28T07:00:47.928Z,100603.34
2022-10-28T07:03:15.456Z,100626.53
2022-10-28T07:05:42.484Z,100611.97
2022-10-28T07:08:09.588Z,100334.56
2022-10-28T07:10:36.702Z,100546.88
2022-10-28T07:13:04.382Z,100629.00
2022-10-28T07:15:31.658Z,100531.25
2022-10-28T07:17:59.576Z,100594.75
2022-10-28T07:20:28.148Z,100605.63
2022-10-28T07:23:02.543Z,100620.91
2022-10-28T07:25:31.159Z,100628.66
2022-10-28T07:27:59.439Z,100502.03
2022-10-28T07:30:27.837Z,100595.31
2022-10-28T07:32:55.019Z,100626.78
2022-10-28T07:35:22.295Z,100617.53
2022-10-28T07:37:49.250Z,100613.66
2022-10-28T07:40:16.560Z,100586.28
2022-10-28T07:42:43.580Z,100598.66
2022-10-28T07:45:10.713Z,100605.13
2022-10-28T07:47:37.833Z,100606.09
2022-10-28T07:50:06.427Z,100624.09
2022-10-28T07:52:34.833Z,100581.06
2022-10-28T07:55:02.868Z,100603.88
2022-10-28T07:57:30.575Z,100621.75
2022-10-28T07:59:57.771Z,100578.94
2022-10-28T08:02:25.977Z,100543.09
2022-10-28T08:04:53.356Z,100601.53
2022-10-28T08:07:20.780Z,100493.53
2022-10-28T08:09:47.833Z,100591.41
2022-10-28T08:12:15.888Z,100626.94
2022-10-28T08:14:43.027Z,100622.09
2022-10-28T08:17:10.156Z,100518.38
2022-10-28T08:19:37.468Z,100569.69
2022-10-28T08:22:04.722Z,100507.66
2022-10-28T08:24:31.861Z,100593.41
2022-10-28T08:26:58.916Z,100543.56
2022-10-28T08:29:29.078Z,100616.78
2022-10-28T08:31:57.993Z,100562.31
2022-10-28T08:34:29.901Z,100629.03
2022-10-28T08:36:57.875Z,100617.00
2022-10-28T08:39:25.176Z,100522.16
2022-10-28T08:42:24.100Z,100602.38
2022-10-28T08:45:16.254Z,100498.78
2022-10-28T08:48:14.626Z,100584.56
2022-10-28T08:50:53.608Z,100564.78
2022-10-28T08:53:35.549Z,100606.50
2022-10-28T08:56:14.731Z,100510.06
2022-10-28T08:58:45.073Z,100592.72
2022-10-28T09:01:21.418Z,100589.38
2022-10-28T09:03:51.493Z,100567.63
2022-10-28T09:06:18.433Z,100579.97
2022-10-28T09:08:49.310Z,100551.19
2022-10-28T09:11:26.283Z,100492.56
2022-10-28T09:14:09.431Z,100577.69
2022-10-28T09:16:47.179Z,100579.56
2022-10-28T09:19:14.099Z,100554.84
2022-10-28T09:22:22.780Z,100574.25
2022-10-28T09:24:54.083Z,100563.38
2022-10-28T09:27:42.082Z,100559.34
2022-10-28T09:30:46.409Z,100559.78
2022-10-28T09:33:40.962Z,100559.22
2022-10-28T09:36:16.943Z,100530.47
2022-10-28T09:38:45.084Z,100551.72
2022-10-28T09:41:20.910Z,100547.78
2022-10-28T09:44:04.427Z,100541.22
2022-10-28T09:46:36.209Z,100439.78
2022-10-28T09:49:10.802Z,100545.81
2022-10-28T09:51:52.893Z,100537.00
2022-10-28T09:54:28.558Z,100524.53
2022-10-28T09:56:55.560Z,100512.94
2022-10-28T09:59:22.575Z,100540.03
2022-10-28T10:01:49.736Z,100494.41
2022-10-28T10:04:21.122Z,100525.03
2022-10-28T10:06:56.678Z,100520.50
2022-10-28T10:09:27.476Z,100418.84
2022-10-28T10:11:59.814Z,100437.34
2022-10-28T10:14:36.933Z,100522.25
2022-10-28T10:17:10.531Z,100510.84
2022-10-28T10:20:00.788Z,100504.84
2022-10-28T10:22:37.320Z,100233.91
2022-10-28T10:25:23.288Z,100509.00
2022-10-28T10:27:51.951Z,100520.22
2022-10-28T10:30:23.589Z,100511.25
2022-10-28T10:32:52.131Z,100440.03
2022-10-28T10:35:29.683Z,100506.63
2022-10-28T10:37:59.769Z,100402.84
2022-10-28T10:40:37.188Z,100510.44
2022-10-28T10:43:27.402Z,100505.34
2022-10-28T10:46:12.319Z,100500.03
2022-10-28T10:48:39.357Z,100477.88
2022-10-28T10:51:18.254Z,100495.38
2022-10-28T10:53:49.575Z,100423.22
2022-10-28T10:56:26.586Z,100458.88
2022-10-28T10:58:56.404Z,100491.00
2022-10-28T11:01:27.745Z,100431.97
2022-10-28T11:04:08.787Z,100514.13
2022-10-28T11:06:42.500Z,100414.72
2022-10-28T11:09:27.866Z,100505.16
2022-10-28T11:11:56.042Z,100498.50
2022-10-28T11:14:26.481Z,100475.63
2022-10-28T11:16:55.977Z,100474.88
2022-10-28T11:19:35.027Z,100338.66
2022-10-28T11:22:13.312Z,100474.50
2022-10-28T11:25:17.042Z,100486.63
2022-10-28T11:28:21.517Z,100482.09
2022-10-28T11:31:18.998Z,100472.47
2022-10-28T11:33:49.028Z,100450.47
2022-10-28T11:36:22.293Z,100353.94
2022-10-28T11:39:25.115Z,100451.47
2022-10-28T11:41:51.983Z,100460.09
2022-10-28T11:44:21.745Z,100425.84
2022-10-28T11:47:19.842Z,100466.38
2022-10-28T11:49:59.176Z,100468.25
2022-10-28T11:52:34.727Z,100470.53
2022-10-28T11:55:26.503Z,100466.94
2022-10-28T11:58:25.669Z,100450.22
2022-10-28T12:01:32.107Z,100466.16
2022-10-28T12:04:05.164Z,100445.91
2022-10-28T12:06:41.191Z,100298.41
2022-10-28T12:09:35.658Z,100463.53
2022-10-28T12:12:09.961Z,100452.06
2022-10-28T12:14:58.798Z,100454.72
2022-10-28T12:17:47.532Z,100455.59
2022-10-28T12:20:27.317Z,100430.31
2022-10-28T12:23:03.397Z,100440.75
2022-10-28T12:25:38.018Z,100449.59
2022-10-28T12:28:22.162Z,100465.22
2022-10-28T12:30:54.782Z,100449.59
2022-10-28T12:33:33.515Z,100444.41
2022-10-28T12:36:10.224Z,100440.94
2022-10-28T12:38:50.784Z,100369.88
2022-10-28T12:41:33.035Z,100426.16
2022-10-28T12:44:13.351Z,100440.94
2022-10-28T12:47:17.730Z,100441.94
2022-10-28T12:50:09.168Z,100441.66
2022-10-28T12:52:42.400Z,100440.88
2022-10-28T12:55:38.072Z,100436.63
2022-10-28T12:58:15.857Z,100440.91
2022-10-28T13:00:47.862Z,100411.00
2022-10-28T13:03:16.276Z,100346.97
2022-10-28T13:05:51.442Z,100404.91
2022-10-28T13:08:39.345Z,100383.16
2022-10-28T13:11:40.386Z,100418.16
2022-10-28T13:14:35.175Z,100423.59
2022-10-28T13:17:43.858Z,100423.47
2022-10-28T13:20:39.271Z,100419.00
2022-10-28T13:23:13.108Z,100366.19
2022-10-28T13:25:40.321Z,100333.69
2022-10-28T13:28:14.653Z,100385.56
2022-10-28T13:30:54.296Z,100408.44
2022-10-28T13:33:26.872Z,100409.22
2022-10-28T13:36:07.481Z,100390.75
2022-10-28T13:38:35.385Z,100363.41
2022-10-28T13:41:02.320Z,100411.69
2022-10-28T13:43:50.998Z,100416.94
2022-10-28T13:46:55.618Z,100413.47
2022-10-28T13:49:24.707Z,100251.75
2022-10-28T13:52:00.060Z,100387.81
2022-10-28T13:54:51.364Z,100416.00
2022-10-28T13:57:36.961Z,100381.13
2022-10-28T14:00:15.932Z,100411.75
2022-10-28T14:03:17.338Z,100414.47
2022-10-28T14:05:44.392Z,100402.25
2022-10-28T14:08:32.656Z,100384.72
2022-10-28T14:11:04.730Z,100398.84
2022-10-28T14:13:37.374Z,100394.50
2022-10-28T14:16:36.920Z,100339.88
2022-10-28T14:19:15.201Z,100285.72
2022-10-28T14:21:51.340Z,100362.03
2022-10-28T14:24:35.702Z,100311.19
2022-10-28T14:27:05.706Z,100391.84
2022-10-28T14:30:02.415Z,100386.63
2022-10-28T14:32:33.789Z,100402.25
2022-10-28T14:35:05.990Z,100398.78
2022-10-28T14:37:36.045Z,100394.38
2022-10-28T14:40:31.098Z,100382.97
2022-10-28T14:43:29.374Z,100282.16
2022-10-28T14:46:31.176Z,100392.66
2022-10-28T14:49:00.899Z,100374.00
2022-10-28T14:51:37.205Z,100391.59
2022-10-28T14:54:12.398Z,100361.75
2022-10-28T14:56:41.146Z,100390.72
2022-10-28T14:59:27.881Z,100392.56
2022-10-28T15:02:21.998Z,100387.34
2022-10-28T15:05:01.711Z,100397.56
2022-10-28T15:07:35.520Z,100374.84
2022-10-28T15:10:28.684Z,100380.09
2022-10-28T15:13:00.720Z,100385.13
2022-10-28T15:15:34.616Z,100391.25
2022-10-28T15:18:02.425Z,100382.50
2022-10-28T15:20:32.510Z,100387.78
2022-10-28T15:26:14.924Z,100379.25
2022-10-28T15:28:43.127Z,100381.81
2022-10-28T15:31:10.606Z,100354.53
2022-10-28T15:33:39.811Z,100346.69
2022-10-28T15:36:25.466Z,100348.53
2022-10-28T15:39:16.555Z,100357.38
2022-10-28T15:41:49.616Z,100330.03
2022-10-28T15:44:37.144Z,100365.06
2022-10-28T15:47:29.495Z,100359.97
2022-10-28T15:50:14.770Z,100356.31
2022-10-28T15:52:57.360Z,100051.88
2022-10-28T15:55:35.848Z,100341.34
2022-10-28T15:58:19.307Z,100273.66
2022-10-28T16:00:58.319Z,100256.91
2022-10-28T16:03:47.632Z,100369.91
2022-10-28T16:06:34.776Z,100345.59
2022-10-28T16:09:16.658Z,100348.91
2022-10-28T16:11:49.759Z,100368.97
2022-10-28T16:14:45.766Z,100370.69
2022-10-28T16:17:23.949Z,100357.53
2022-10-28T16:19:56.009Z,100365.34
2022-10-28T16:22:26.162Z,100348.69
2022-10-28T16:24:54.381Z,100326.78
2022-10-28T16:27:22.896Z,100361.91
2022-10-28T16:29:50.670Z,100357.53
2022-10-28T16:32:22.630Z,100303.09
2022-10-28T16:34:49.712Z,100284.00
2022-10-28T16:37:26.048Z,100355.13
2022-10-28T16:39:53.309Z,100278.53
2022-10-28T16:42:21.296Z,100264.63
2022-10-28T16:44:48.427Z,100349.81
2022-10-28T16:47:18.252Z,100346.38
2022-10-28T16:49:45.894Z,100304.44
2022-10-28T16:52:21.017Z,100348.44
2022-10-28T16:54:48.946Z,100316.88
2022-10-28T16:57:17.106Z,100251.09
2022-10-28T16:59:44.091Z,100264.16
2022-10-28T17:02:30.856Z,100308.13
2022-10-28T17:04:59.413Z,100299.22
2022-10-28T17:07:28.029Z,100326.59
2022-10-28T17:09:55.150Z,100335.31
2022-10-28T17:12:24.812Z,100337.09
2022-10-28T17:14:52.420Z,100332.69
2022-10-28T17:17:19.714Z,100319.53
2022-10-28T17:19:47.629Z,100333.56
2022-10-28T17:22:14.841Z,100170.50
2022-10-28T17:24:42.022Z,100325.72
2022-10-28T17:27:09.064Z,100207.25
2022-10-28T17:29:36.279Z,100286.25
2022-10-28T17:32:03.504Z,100296.84
2022-10-28T17:34:30.550Z,100320.59
2022-10-28T17:36:57.587Z,100190.09
2022-10-28T17:39:26.387Z,100303.25
2022-10-28T17:41:54.014Z,100314.66
2022-10-28T17:44:20.964Z,100308.56
2022-10-28T17:46:52.060Z,100263.09
2022-10-28T17:49:19.403Z,100305.34
2022-10-28T17:51:46.386Z,100287.84
2022-10-28T17:54:13.564Z,100278.19
2022-10-28T17:56:42.294Z,100288.72
2022-10-28T17:59:09.651Z,100289.56
2022-10-28T18:01:37.235Z,100302.59
2022-10-28T18:04:06.265Z,100298.94
2022-10-28T18:06:33.493Z,100289.25
2022-10-28T18:09:00.589Z,100299.06
2022-10-28T18:11:27.729Z,100299.00
2022-10-28T18:13:56.439Z,100298.19
2022-10-28T18:16:30.710Z,100298.13
2022-10-28T18:19:07.309Z,100256.03
2022-10-28T18:21:35.187Z,100285.13
2022-10-28T18:24:05.330Z,100224.63
2022-10-28T18:26:34.795Z,100199.28
2022-10-28T18:29:05.331Z,100298.38
2022-10-28T18:31:33.827Z,100201.06
2022-10-28T18:34:02.698Z,100279.19
2022-10-28T18:36:34.537Z,100266.09
2022-10-28T18:39:04.295Z,100262.56
2022-10-28T18:41:32.661Z,100269.66
2022-10-28T18:44:01.917Z,100277.56
2022-10-28T18:46:31.617Z,100231.28
2022-10-28T18:51:25.921Z,100264.66
2022-10-28T18:53:53.091Z,100272.63
2022-10-28T18:56:22.785Z,100280.56
2022-10-28T18:58:51.657Z,100266.53
2022-10-28T19:01:24.346Z,100286.56
2022-10-28T19:03:57.060Z,100170.81
2022-10-28T19:06:26.179Z,100278.75
2022-10-28T19:08:55.453Z,100276.06
2022-10-28T19:11:25.913Z,100290.91
2022-10-28T19:13:53.033Z,100272.69
2022-10-28T19:16:20.080Z,100178.91
2022-10-28T19:18:47.193Z,100253.44
2022-10-28T19:21:16.572Z,100283.28
2022-10-28T19:23:45.170Z,100255.13
2022-10-28T19:26:13.854Z,100285.84
2022-10-28T19:28:43.792Z,100272.75
2022-10-28T19:31:19.530Z,100285.91
2022-10-28T19:33:46.887Z,100257.06
2022-10-28T19:36:18.853Z,100281.59
2022-10-28T19:38:48.092Z,100275.53
2022-10-28T19:41:19.777Z,100157.28
2022-10-28T19:43:49.160Z,100278.22
2022-10-28T19:46:22.393Z,100270.41
2022-10-28T19:48:51.364Z,100243.16
2022-10-28T19:51:21.269Z,100254.41
2022-10-28T19:53:49.918Z,100272.03
2022-10-28T19:56:19.515Z,100187.06
2022-10-28T19:59:07.678Z,100239.72
2022-10-28T20:01:38.528Z,100241.31
2022-10-28T20:04:06.713Z,100261.53
2022-10-28T20:06:36.274Z,100172.13
2022-10-28T20:09:03.999Z,100249.44
2022-10-28T20:11:33.264Z,100167.03
2022-10-28T20:14:12.105Z,100242.66
2022-10-28T20:16:42.857Z,100237.41
2022-10-28T20:19:10.738Z,100208.59
2022-10-28T20:21:39.420Z,100243.50
2022-10-28T20:24:07.780Z,100164.63
2022-10-28T20:26:37.096Z,100233.06
2022-10-28T20:29:06.944Z,100236.53
2022-10-28T20:31:34.337Z,100077.13
2022-10-28T20:34:04.011Z,100205.22
2022-10-28T20:36:33.463Z,100183.44
2022-10-28T20:39:06.971Z,100223.59
2022-10-28T20:41:35.407Z,100238.47
2022-10-28T20:44:05.355Z,100228.16
2022-10-28T20:46:32.808Z,100106.56
2022-10-28T20:49:01.040Z,100169.78
2022-10-28T20:51:30.538Z,100194.41
2022-10-28T20:53:58.193Z,100193.56
2022-10-28T20:56:27.348Z,100198.78
2022-10-28T20:58:56.018Z,100187.41
2022-10-28T21:01:37.451Z,100193.56
2022-10-28T21:04:08.955Z,100130.53
2022-10-28T21:06:39.479Z,100165.50
2022-10-28T21:09:07.977Z,100169.97
2022-10-28T21:11:34.983Z,100186.59
2022-10-28T21:14:02.385Z,100055.28
2022-10-28T21:16:30.268Z,100168.22
2022-10-28T21:18:59.242Z,100120.09
2022-10-28T21:21:27.484Z,100197.16
2022-10-28T21:23:54.547Z,100182.31
2022-10-28T21:26:21.767Z,100036.16
2022-10-28T21:28:50.293Z,100177.09
2022-10-28T21:31:18.314Z,100020.56
2022-10-28T21:33:46.118Z,100160.59
2022-10-28T21:36:15.852Z,100159.81
2022-10-28T21:38:43.350Z,100178.16
2022-10-28T21:41:14.450Z,100172.97
2022-10-28T21:43:44.102Z,100142.19
2022-10-28T21:46:12.629Z,100150.34
2022-10-28T21:48:40.590Z,100163.41
2022-10-28T21:51:14.523Z,100169.44
2022-10-28T21:53:43.979Z,100152.13
2022-10-28T21:56:18.533Z,100163.38
2022-10-28T21:58:48.821Z,100145.09
2022-10-28T22:01:21.185Z,100150.44
2022-10-28T22:03:49.362Z,100153.06
2022-10-28T22:06:16.340Z,100147.06
2022-10-28T22:08:43.575Z,100153.16
2022-10-28T22:11:18.033Z,100120.00
2022-10-28T22:13:45.815Z,100115.69
2022-10-28T22:16:18.048Z,100145.41
2022-10-28T22:18:45.565Z,100129.63
2022-10-28T22:21:17.168Z,100104.41
2022-10-28T22:23:44.734Z,100120.97
2022-10-28T22:26:14.140Z,100141.06
2022-10-28T22:28:41.342Z,100117.53
2022-10-28T22:31:15.311Z,100115.91
2022-10-28T22:33:42.426Z,100114.97
2022-10-28T22:36:17.145Z,100121.09
2022-10-28T22:38:44.717Z,100123.72
2022-10-28T22:41:29.351Z,100018.00
2022-10-28T22:43:59.175Z,100091.44
2022-10-28T22:46:28.844Z,100095.00
2022-10-28T22:48:56.419Z,100083.53
2022-10-28T22:51:26.264Z,100101.19
2022-10-28T22:53:53.327Z,100094.25
2022-10-28T22:56:22.266Z,100086.38
2022-10-28T22:58:53.676Z,100094.19
2022-10-28T23:01:21.926Z,100082.16
2022-10-28T23:03:50.628Z,100020.06
2022-10-28T23:06:20.226Z,100092.56
2022-10-28T23:08:47.690Z,100105.75
2022-10-28T23:11:16.395Z,100075.94
2022-10-28T23:13:43.827Z,100101.34
2022-10-28T23:16:13.502Z,100013.81
2022-10-28T23:18:41.234Z,100062.00
2022-10-28T23:21:12.483Z,100096.16
2022-10-28T23:23:40.435Z,100104.84
2022-10-28T23:26:10.577Z,100077.69
2022-10-28T23:28:37.546Z,100083.91
2022-10-28T23:31:06.240Z,100057.72
2022-10-28T23:33:34.837Z,100080.44
2022-10-28T23:36:03.921Z,100083.94
2022-10-28T23:38:31.436Z,100084.00
2022-10-28T23:41:00.657Z,100083.06
2022-10-28T23:43:28.882Z,100055.94
2022-10-28T23:45:56.835Z,100090.06
2022-10-28T23:48:25.154Z,100083.03
2022-10-28T23:50:52.691Z,99996.50
2022-10-28T23:53:20.319Z,100063.00
2022-10-28T23:55:49.262Z,100084.91
2022-10-28T23:58:18.044Z,100083.94
